Time;durP1;ratioP1;P1;durP2;ratioP2;P2;SDS_P1;SDS_P2;PMS_P1;PMS_P2;Temp;Humidity;BMP_temperature;BMP_pressure;BME280_temperature;BME280_humidity;BME280_pressure;Samples;Min_cycle;Max_cycle;Signal;HPM_P1;HPM_P2
2021/12/18 05:44:38;;;;;;;4.63;4.47;;;;;;;1.16;100.00;92529.41;4911215;23;20573;-73
2021/12/18 05:47:06;;;;;;;2.67;2.57;;;;;;;1.27;100.00;92540.09;4909717;28;20204;-73
2021/12/18 05:49:33;;;;;;;5.47;5.13;;;;;;;1.24;100.00;92528.47;4912328;28;20505;-73
2021/12/18 05:52:01;;;;;;;2.70;2.60;;;;;;;1.22;100.00;92531.84;4917536;28;20645;-73
2021/12/18 05:54:39;;;;;;;2.87;2.77;;;;;;;0.87;100.00;92476.63;4914214;28;20871;-71
2021/12/18 05:57:09;;;;;;;2.10;2.10;;;;;;;1.15;100.00;92526.09;4909724;28;20557;-71
2021/12/18 05:59:38;;;;;;;2.97;2.87;;;;;;;1.23;100.00;92533.50;4901219;28;20587;-70
2021/12/18 06:02:05;;;;;;;4.43;4.23;;;;;;;1.19;100.00;92544.28;4915753;28;20268;-71
2021/12/18 06:04:32;;;;;;;3.50;3.30;;;;;;;1.14;100.00;92539.38;4918100;28;20797;-71
2021/12/18 06:07:06;;;;;;;3.30;3.20;;;;;;;1.11;100.00;92539.41;4921103;28;20569;-71
2021/12/18 06:09:36;;;;;;;3.93;3.63;;;;;;;1.27;100.00;92549.22;4915658;28;20538;-71
2021/12/18 06:12:04;;;;;;;2.00;2.00;;;;;;;1.29;100.00;92547.53;4914993;28;20231;-71
2021/12/18 06:14:31;;;;;;;5.37;4.97;;;;;;;1.08;100.00;92553.50;4916300;28;20524;-71
2021/12/18 06:17:00;;;;;;;5.33;5.03;;;;;;;1.07;100.00;92549.41;4911603;28;20530;-71
2021/12/18 06:19:27;;;;;;;9.17;6.63;;;;;;;1.07;100.00;92554.38;4911649;28;20216;-71
2021/12/18 06:21:54;;;;;;;5.07;4.80;;;;;;;1.08;100.00;92556.00;4919154;28;20592;-70
2021/12/18 06:24:22;;;;;;;6.03;5.53;;;;;;;1.10;100.00;92564.28;4918766;28;20583;-70
2021/12/18 06:26:49;;;;;;;70.20;37.30;;;;;;;1.08;100.00;92569.25;4915135;28;20616;-70
2021/12/18 06:29:16;;;;;;;29.87;13.77;;;;;;;1.12;100.00;92563.44;4907594;28;20563;-71
2021/12/18 06:31:43;;;;;;;8.10;7.23;;;;;;;1.10;100.00;92572.56;4920407;28;20478;-71
2021/12/18 06:34:12;;;;;;;9.60;6.00;;;;;;;1.12;100.00;92575.06;4918318;28;20681;-70
2021/12/18 06:36:40;;;;;;;5.43;3.77;;;;;;;1.13;100.00;92570.06;4908665;28;20285;-71
2021/12/18 06:39:07;;;;;;;5.83;3.87;;;;;;;1.15;100.00;92572.53;4916093;28;20508;-71
2021/12/18 06:41:35;;;;;;;2.93;2.73;;;;;;;0.96;100.00;92553.63;4908324;28;20573;-71
2021/12/18 06:44:05;;;;;;;4.87;3.80;;;;;;;1.16;100.00;92577.50;4911312;28;20496;-70
2021/12/18 06:46:32;;;;;;;6.43;3.43;;;;;;;1.19;100.00;92584.09;4910400;28;20606;-71
2021/12/18 06:48:59;;;;;;;3.43;3.33;;;;;;;1.11;100.00;92571.75;4910875;28;20212;-73
2021/12/18 06:51:28;;;;;;;5.17;4.57;;;;;;;1.18;100.00;92583.28;4911085;28;20583;-73
2021/12/18 06:53:55;;;;;;;3.13;3.03;;;;;;;1.20;100.00;92586.59;4916903;28;20638;-72
2021/12/18 06:56:23;;;;;;;3.77;3.40;;;;;;;1.17;100.00;92594.09;4911998;28;20223;-72
2021/12/18 06:58:50;;;;;;;3.83;3.23;;;;;;;1.12;100.00;92587.50;4906293;28;20562;-72
2021/12/18 07:01:17;;;;;;;1.90;1.90;;;;;;;1.08;100.00;92601.59;4909551;28;20503;-71
2021/12/18 07:03:44;;;;;;;4.03;1.70;;;;;;;1.12;100.00;92593.31;4919776;28;20285;-75
2021/12/18 07:06:12;;;;;;;1.47;1.47;;;;;;;1.23;100.00;92591.53;4917199;28;20510;-73
2021/12/18 07:08:40;;;;;;;1.97;1.87;;;;;;;1.26;100.00;92595.66;4906554;28;20538;-73
2021/12/18 07:11:07;;;;;;;2.03;2.03;;;;;;;1.24;100.00;92600.63;4919842;28;20650;-73
2021/12/18 07:13:35;;;;;;;1.60;1.60;;;;;;;1.23;100.00;92591.53;4915592;28;20598;-72
2021/12/18 07:16:02;;;;;;;3.90;3.47;;;;;;;1.33;100.00;92602.25;4915391;28;20596;-72
2021/12/18 07:18:30;;;;;;;2.67;2.57;;;;;;;1.25;100.00;92586.53;4915483;28;20559;-73
2021/12/18 07:20:57;;;;;;;2.40;2.30;;;;;;;1.13;100.00;92587.47;4913889;28;20566;-73
2021/12/18 07:23:25;;;;;;;1.70;1.70;;;;;;;1.06;100.00;92585.88;4913174;28;20262;-71
2021/12/18 07:25:53;;;;;;;3.60;3.40;;;;;;;1.28;100.00;92618.03;4916675;28;20600;-72
2021/12/18 07:28:21;;;;;;;2.67;2.23;;;;;;;1.20;100.00;92593.22;4913765;28;20574;-72
2021/12/18 07:30:48;;;;;;;2.83;2.63;;;;;;;1.39;100.00;92616.28;4917560;28;20454;-73
2021/12/18 07:33:15;;;;;;;2.13;2.13;;;;;;;1.41;100.00;92622.88;4914669;28;20558;-72
2021/12/18 07:35:43;;;;;;;2.00;2.00;;;;;;;1.39;100.00;92619.59;4916657;28;20629;-73
2021/12/18 07:38:11;;;;;;;3.83;3.53;;;;;;;1.45;100.00;92613.75;4914701;28;20274;-74
2021/12/18 07:40:38;;;;;;;2.67;2.57;;;;;;;1.36;100.00;92623.75;4909181;28;20518;-73
2021/12/18 07:43:07;;;;;;;3.27;3.13;;;;;;;1.30;100.00;92622.16;4902212;28;20662;-74
2021/12/18 07:45:35;;;;;;;5.47;5.03;;;;;;;1.34;100.00;92631.28;4907269;28;20592;-74
2021/12/18 07:48:02;;;;;;;4.37;4.07;;;;;;;1.33;100.00;92631.28;4911607;28;20499;-74
2021/12/18 07:50:29;;;;;;;2.23;2.23;;;;;;;1.24;100.00;92632.97;4917459;28;20569;-73
2021/12/18 07:52:57;;;;;;;4.37;4.27;;;;;;;1.10;100.00;92634.75;4913891;28;20217;-74
2021/12/18 07:55:24;;;;;;;3.70;3.47;;;;;;;1.22;100.00;92637.16;4910785;28;20498;-74
2021/12/18 07:57:53;;;;;;;4.07;3.87;;;;;;;1.23;100.00;92641.31;4915140;28;20565;-74
2021/12/18 08:00:22;;;;;;;5.97;5.67;;;;;;;1.31;100.00;92642.88;4914684;28;20474;-75
2021/12/18 08:02:50;;;;;;;1.90;1.80;;;;;;;1.35;100.00;92642.06;4916793;28;20224;-75
2021/12/18 08:05:17;;;;;;;3.13;3.03;;;;;;;1.52;100.00;92651.00;4905614;28;20596;-75
2021/12/18 08:07:44;;;;;;;2.27;2.23;;;;;;;1.51;100.00;92656.84;4905271;28;20463;-75
2021/12/18 08:10:12;;;;;;;3.27;2.80;;;;;;;1.59;100.00;92660.06;4900215;28;20600;-75
2021/12/18 08:12:40;;;;;;;1.97;1.90;;;;;;;1.47;100.00;92655.19;4909182;28;20610;-75
2021/12/18 08:15:09;;;;;;;1.97;1.70;;;;;;;1.37;100.00;92665.25;4908725;28;20217;-74
2021/12/18 08:17:38;;;;;;;2.07;1.87;;;;;;;1.46;99.94;92670.16;4911007;28;20205;-75
2021/12/18 08:20:06;;;;;;;2.40;2.30;;;;;;;1.42;100.00;92668.50;4909015;28;20609;-74
2021/12/18 08:22:33;;;;;;;5.10;4.47;;;;;;;1.40;100.00;92668.56;4909525;28;20688;-73
2021/12/18 08:25:01;;;;;;;1.93;1.87;;;;;;;1.56;99.11;92681.69;4909487;28;20559;-73
2021/12/18 08:27:29;;;;;;;2.17;2.07;;;;;;;1.52;100.00;92677.59;4910791;28;20209;-74
2021/12/18 08:29:56;;;;;;;3.70;1.20;;;;;;;1.38;100.00;92675.19;4909365;28;20322;-73
2021/12/18 08:32:23;;;;;;;2.50;2.40;;;;;;;1.52;99.22;92685.84;4917229;28;20211;-73
2021/12/18 08:34:52;;;;;;;1.40;1.40;;;;;;;1.59;99.61;92681.66;4912992;28;20695;-74
2021/12/18 08:37:20;;;;;;;1.27;1.27;;;;;;;1.47;100.00;92664.31;4911569;28;20199;-75
2021/12/18 08:39:47;;;;;;;2.10;1.97;;;;;;;1.63;99.26;92683.31;4905952;28;20214;-74
2021/12/18 08:42:14;;;;;;;1.57;1.57;;;;;;;1.66;99.23;92679.09;4913247;28;20646;-76
2021/12/18 08:44:42;;;;;;;3.67;3.00;;;;;;;1.77;99.02;92693.94;4909843;28;20598;-74
2021/12/18 08:47:10;;;;;;;3.20;3.00;;;;;;;1.80;98.45;92683.97;4914386;28;20574;-73
2021/12/18 08:49:38;;;;;;;4.23;4.13;;;;;;;1.89;98.16;92693.84;4914369;28;20566;-74
2021/12/18 08:52:07;;;;;;;11.53;7.43;;;;;;;1.89;97.71;92703.81;4912930;28;20694;-73
2021/12/18 08:54:35;;;;;;;8.27;7.47;;;;;;;1.90;97.50;92690.53;4911877;28;20610;-73
2021/12/18 08:57:02;;;;;;;4.03;3.93;;;;;;;1.75;99.40;92685.66;4907316;28;20220;-74
2021/12/18 08:59:30;;;;;;;5.57;5.17;;;;;;;1.64;100.00;92687.41;4907118;28;20584;-74
2021/12/18 09:01:57;;;;;;;5.80;5.57;;;;;;;1.69;100.00;92679.94;4915972;28;20596;-73
2021/12/18 09:04:24;;;;;;;4.10;3.80;;;;;;;1.72;99.68;92680.72;4912899;28;20498;-75
2021/12/18 09:06:51;;;;;;;5.47;4.47;;;;;;;1.52;99.35;92675.88;4909774;28;20563;-75
2021/12/18 09:09:20;;;;;;;5.50;5.10;;;;;;;1.49;100.00;92675.09;4908721;28;20232;-76
2021/12/18 09:11:49;;;;;;;4.97;4.50;;;;;;;1.62;99.82;92684.13;4907544;28;20268;-74
2021/12/18 09:14:16;;;;;;;8.53;7.70;;;;;;;1.79;99.35;92681.50;4910046;28;20684;-73
2021/12/18 09:16:44;;;;;;;12.70;6.40;;;;;;;1.79;99.62;92681.50;4907843;28;20492;-73
2021/12/18 09:19:12;;;;;;;8.77;8.03;;;;;;;1.70;100.00;92674.09;4907095;28;20626;-75
2021/12/18 09:21:40;;;;;;;5.57;3.53;;;;;;;1.69;98.13;92690.69;4907316;28;20561;-73
2021/12/18 09:24:07;;;;;;;3.97;3.87;;;;;;;1.71;95.64;92705.63;4909496;28;20504;-73
2021/12/18 09:26:36;;;;;;;5.47;4.97;;;;;;;1.59;97.31;92689.94;4917426;28;20498;-73
2021/12/18 09:29:04;;;;;;;6.17;5.67;;;;;;;1.50;98.25;92680.06;4913320;28;20562;-73
2021/12/18 09:31:31;;;;;;;16.47;7.57;;;;;;;1.66;98.54;92686.56;4909201;28;20233;-74
2021/12/18 09:33:59;;;;;;;5.10;4.57;;;;;;;1.80;99.17;92690.63;4910505;28;20697;-72
2021/12/18 09:36:26;;;;;;;6.43;5.83;;;;;;;1.80;98.59;92666.56;4913841;28;20608;-73
2021/12/18 09:38:53;;;;;;;5.43;4.97;;;;;;;2.17;98.91;92689.41;4908085;28;20577;-73
2021/12/18 09:41:20;;;;;;;6.57;5.80;;;;;;;2.16;98.93;92669.50;4907435;28;20598;-73
2021/12/18 09:43:49;;;;;;;5.83;5.63;;;;;;;2.36;98.00;92688.41;4902657;28;20256;-74
2021/12/18 09:46:17;;;;;;;8.90;7.93;;;;;;;2.58;97.02;92698.94;4909137;28;20657;-73
2021/12/18 09:48:46;;;;;;;6.20;5.80;;;;;;;2.66;93.91;92688.84;4912091;28;20601;-74
2021/12/18 09:51:22;;;;;;;39.60;18.97;;;;;;;2.86;92.27;92721.88;4916989;28;20197;-74
2021/12/18 09:53:51;;;;;;;9.60;8.83;;;;;;;2.90;91.35;92696.06;4916632;28;20602;-73
2021/12/18 09:56:18;;;;;;;3.70;3.40;;;;;;;2.98;90.80;92704.28;4916994;28;20507;-73
2021/12/18 09:58:45;;;;;;;3.87;3.77;;;;;;;2.97;89.20;92705.13;4918009;28;20193;-73
2021/12/18 10:01:15;;;;;;;4.83;4.63;;;;;;;2.99;88.79;92725.84;4913999;28;20590;-75
2021/12/18 10:03:44;;;;;;;2.03;2.00;;;;;;;2.82;88.05;92695.31;4916373;28;20678;-74
2021/12/18 10:06:33;;;;;;;3.70;3.53;;;;;;;2.95;87.08;92723.44;4902999;28;20241;-73
2021/12/18 10:09:01;;;;;;;1.83;1.83;;;;;;;2.89;86.90;92712.69;4906966;28;20527;-72
2021/12/18 10:11:28;;;;;;;1.90;1.90;;;;;;;2.84;88.20;92701.13;4907506;28;20609;-73
2021/12/18 10:13:58;;;;;;;2.40;2.33;;;;;;;2.79;88.35;92696.19;4909396;28;20503;-73
2021/12/18 10:16:28;;;;;;;3.50;3.37;;;;;;;2.85;88.45;92690.28;4915579;28;20645;-74
2021/12/18 10:18:57;;;;;;;3.03;2.93;;;;;;;2.84;88.77;92684.47;4912257;28;20526;-74
2021/12/18 10:21:29;;;;;;;2.27;2.17;;;;;;;2.88;88.18;92700.22;4912323;28;20612;-75
2021/12/18 10:24:13;;;;;;;7.47;2.93;;;;;;;2.69;88.67;92688.84;4916686;28;20501;-75
2021/12/18 10:26:43;;;;;;;2.40;2.30;;;;;;;2.66;88.02;92693.84;4909049;28;20228;-75
2021/12/18 10:29:25;;;;;;;4.37;4.03;;;;;;;2.58;88.00;92684.00;4905771;28;20563;-74
2021/12/18 10:31:54;;;;;;;2.83;2.73;;;;;;;2.52;88.14;92690.72;4904560;28;20601;-75
2021/12/18 10:34:23;;;;;;;5.50;3.60;;;;;;;2.48;88.82;92694.88;4916510;28;20501;-75
2021/12/18 10:37:15;;;;;;;3.53;3.20;;;;;;;2.51;88.94;92692.38;4905798;28;20559;-74
2021/12/18 10:39:56;;;;;;;3.70;3.60;;;;;;;2.55;88.35;92693.97;4915392;28;20592;-75
2021/12/18 10:42:26;;;;;;;4.97;4.70;;;;;;;2.52;88.38;92694.03;4903735;28;20236;-76
2021/12/18 10:45:04;;;;;;;3.83;3.63;;;;;;;2.48;88.07;92690.72;4909506;28;20565;-74
2021/12/18 10:47:50;;;;;;;3.47;3.37;;;;;;;2.50;89.40;92678.25;4906004;28;20224;-75
2021/12/18 10:50:19;;;;;;;8.57;5.80;;;;;;;2.53;90.08;92672.41;4907961;28;20569;-74
2021/12/18 10:52:54;;;;;;;3.90;3.40;;;;;;;2.58;90.27;92678.16;4917923;28;20547;-74
2021/12/18 10:55:27;;;;;;;4.93;4.63;;;;;;;2.59;91.12;92665.69;4912313;28;20620;-73
2021/12/18 10:57:55;;;;;;;7.90;7.40;;;;;;;2.60;90.05;92672.31;4912396;28;20586;-73
2021/12/18 11:00:40;;;;;;;6.67;6.00;;;;;;;2.60;88.25;92686.44;4904290;28;20210;-74
2021/12/18 11:03:26;;;;;;;3.00;2.90;;;;;;;2.57;87.07;92688.97;4910409;28;20582;-74
2021/12/18 11:06:09;;;;;;;1.77;1.77;;;;;;;2.55;86.82;92690.66;4915970;28;20205;-74
2021/12/18 11:08:51;;;;;;;2.53;2.43;;;;;;;2.30;86.57;92676.00;4912455;28;20598;-74
2021/12/18 11:14:06;;;;;;;2.53;2.43;;;;;;;2.23;87.46;92653.66;4908218;28;20284;-75
2021/12/18 11:16:35;;;;;;;2.20;2.10;;;;;;;2.22;87.64;92657.78;4916756;28;20575;-75
2021/12/18 11:19:06;;;;;;;2.23;2.13;;;;;;;2.12;87.35;92656.25;4913465;28;20486;-74
2021/12/18 11:21:35;;;;;;;2.70;2.60;;;;;;;1.98;88.68;92635.63;4917168;28;20491;-73
2021/12/18 11:24:05;;;;;;;2.73;2.63;;;;;;;2.04;89.67;92645.53;4913850;28;20613;-72
2021/12/18 11:26:41;;;;;;;1.80;1.70;;;;;;;1.93;88.82;92653.13;4912720;28;20684;-74
2021/12/18 11:29:14;;;;;;;2.83;2.57;;;;;;;2.00;88.74;92648.91;4917950;28;20652;-75
2021/12/18 11:31:42;;;;;;;2.10;2.10;;;;;;;1.99;87.57;92652.22;4915723;28;20566;-75
2021/12/18 11:34:11;;;;;;;4.07;2.93;;;;;;;2.02;88.98;92642.25;4915633;28;20202;-74
2021/12/18 11:36:43;;;;;;;2.23;2.23;;;;;;;2.03;88.42;92648.84;4908591;28;20573;-73
2021/12/18 11:39:12;;;;;;;1.60;1.60;;;;;;;1.90;89.56;92637.38;4918855;28;20557;-73
2021/12/18 11:41:40;;;;;;;2.40;2.20;;;;;;;1.84;90.14;92632.47;4911073;28;20582;-73
2021/12/18 11:44:26;;;;;;;1.93;1.83;;;;;;;1.98;90.60;92638.94;4909010;28;20600;-73
2021/12/18 11:46:56;;;;;;;3.17;2.83;;;;;;;1.92;91.59;92630.72;4914607;28;20700;-74
2021/12/18 11:49:42;;;;;;;1.90;1.83;;;;;;;1.25;92.20;92535.13;4912541;28;20487;-74
2021/12/18 11:52:09;;;;;;;1.33;1.33;;;;;;;1.88;92.81;92624.13;4918930;28;20565;-75
2021/12/18 11:54:43;;;;;;;2.80;2.23;;;;;;;1.95;92.25;92640.66;4916957;28;20272;-74
2021/12/18 11:57:11;;;;;;;1.43;1.43;;;;;;;1.98;92.26;92643.94;4910456;28;20479;-74
2021/12/18 11:59:39;;;;;;;1.07;1.07;;;;;;;2.19;92.23;92639.56;4903979;28;20496;-74
2021/12/18 12:02:07;;;;;;;1.40;1.30;;;;;;;2.27;91.39;92648.59;4908586;28;20566;-73
2021/12/18 12:05:01;;;;;;;2.20;1.83;;;;;;;2.02;90.96;92639.75;4912895;28;20605;-74
2021/12/18 12:07:29;;;;;;;1.47;1.47;;;;;;;1.91;92.17;92649.00;4909330;28;20585;-74
2021/12/18 12:10:21;;;;;;;2.80;2.60;;;;;;;1.74;93.41;92640.88;4912794;28;20566;-74
2021/12/18 12:12:54;;;;;;;2.87;2.77;;;;;;;1.55;95.67;92633.56;4914904;28;20586;-74
2021/12/18 12:15:24;;;;;;;0.80;0.80;;;;;;;1.42;96.91;92646.13;4917657;28;20627;-74
2021/12/18 12:17:56;;;;;;;1.90;1.87;;;;;;;1.45;96.74;92658.56;4912618;28;20202;-75
2021/12/18 12:20:37;;;;;;;1.73;1.73;;;;;;;1.37;98.74;92650.31;4908146;28;20671;-75
2021/12/18 12:23:05;;;;;;;1.33;1.33;;;;;;;1.24;99.14;92657.03;4912802;28;20566;-74
2021/12/18 12:25:41;;;;;;;1.83;1.77;;;;;;;1.19;100.00;92664.53;4917055;28;20196;-75
2021/12/18 12:28:10;;;;;;;2.20;2.20;;;;;;;1.08;100.00;92673.72;4909215;28;20655;-74
2021/12/18 12:30:43;;;;;;;1.47;0.90;;;;;;;0.90;100.00;92676.34;4910323;28;20617;-74
2021/12/18 12:33:13;;;;;;;1.30;1.30;;;;;;;0.78;100.00;92672.28;4907913;28;20678;-74
2021/12/18 12:36:11;;;;;;;3.00;1.80;;;;;;;0.62;100.00;92664.91;4916194;28;20235;-73
2021/12/18 12:38:43;;;;;;;0.90;0.90;;;;;;;0.65;100.00;92670.69;4909208;28;20609;-73
2021/12/18 12:41:32;;;;;;;1.43;1.43;;;;;;;0.58;100.00;92671.53;4914511;28;20505;-74
2021/12/18 12:44:12;;;;;;;1.13;1.13;;;;;;;0.63;100.00;92674.81;4906861;28;20611;-74
2021/12/18 12:46:39;;;;;;;1.43;1.43;;;;;;;0.65;100.00;92668.19;4909639;28;20583;-74
2021/12/18 12:49:11;;;;;;;2.17;2.13;;;;;;;0.73;100.00;92661.50;4909612;28;20578;-73
2021/12/18 12:52:06;;;;;;;2.77;2.67;;;;;;;0.89;100.00;92661.44;4909922;28;20567;-73
2021/12/18 12:55:02;;;;;;;1.63;1.53;;;;;;;0.98;100.00;92663.84;4896891;28;20497;-75
2021/12/18 12:57:55;;;;;;;3.33;2.33;;;;;;;0.96;100.00;92663.84;4879550;28;20687;-75
2021/12/18 13:00:40;;;;;;;3.37;3.17;;;;;;;1.06;100.00;92664.66;4917279;28;20583;-73
2021/12/18 13:03:29;;;;;;;2.97;2.77;;;;;;;1.10;100.00;92659.63;4916231;28;20610;-73
2021/12/18 13:06:03;;;;;;;2.57;2.47;;;;;;;1.07;100.00;92671.28;4905797;28;20670;-74
2021/12/18 13:08:34;;;;;;;2.97;2.80;;;;;;;1.11;100.00;92666.28;4908886;28;20604;-73
2021/12/18 13:11:01;;;;;;;4.83;4.53;;;;;;;1.06;100.00;92672.09;4908511;28;20598;-74
2021/12/18 13:13:31;;;;;;;2.77;2.57;;;;;;;1.12;100.00;92672.06;4915254;28;20644;-74
2021/12/18 13:16:02;;;;;;;3.10;3.00;;;;;;;1.13;100.00;92674.53;4914488;28;20311;-73
2021/12/18 13:18:31;;;;;;;6.00;4.77;;;;;;;1.16;100.00;92679.50;4908302;28;20638;-74
2021/12/18 13:21:01;;;;;;;4.33;2.70;;;;;;;1.22;100.00;92684.44;4907029;28;20213;-75
2021/12/18 13:23:44;;;;;;;3.07;2.97;;;;;;;1.09;100.00;92664.63;4911281;28;20661;-74
2021/12/18 13:26:13;;;;;;;2.97;2.87;;;;;;;0.98;100.00;92676.28;4915988;28;20526;-73
2021/12/18 13:28:48;;;;;;;4.03;3.33;;;;;;;1.00;100.00;92669.66;4914753;28;20486;-74
2021/12/18 13:31:18;;;;;;;3.47;3.13;;;;;;;0.96;100.00;92666.34;4912729;28;20517;-75
2021/12/18 13:33:45;;;;;;;3.93;3.73;;;;;;;1.01;100.00;92678.78;4899037;28;20615;-75
2021/12/18 13:36:13;;;;;;;4.10;3.70;;;;;;;0.84;100.00;92668.94;4911294;28;20647;-73
2021/12/18 13:38:44;;;;;;;2.03;2.03;;;;;;;0.89;100.00;92683.81;4906579;28;20553;-74
2021/12/18 13:41:13;;;;;;;2.30;2.20;;;;;;;0.81;100.00;92681.38;4914744;28;20542;-74
2021/12/18 13:43:42;;;;;;;3.53;3.43;;;;;;;0.91;100.00;92685.44;4904543;28;20505;-75
2021/12/18 13:46:11;;;;;;;2.43;2.10;;;;;;;0.92;100.00;92683.78;4910061;28;20561;-74
2021/12/18 13:48:40;;;;;;;2.17;2.13;;;;;;;0.84;100.00;92688.81;4905937;28;20556;-74
2021/12/18 13:51:10;;;;;;;4.00;3.80;;;;;;;0.91;100.00;92672.19;4916478;28;20607;-74
2021/12/18 13:53:51;;;;;;;3.07;2.97;;;;;;;0.94;100.00;92679.66;4915069;28;20593;-75
2021/12/18 13:56:19;;;;;;;4.50;4.27;;;;;;;0.97;100.00;92687.91;4911186;28;20233;-73
2021/12/18 13:58:48;;;;;;;5.70;5.17;;;;;;;0.96;100.00;92691.22;4905160;28;20621;-75
2021/12/18 14:01:17;;;;;;;5.47;5.17;;;;;;;1.11;100.00;92686.16;4916148;28;20637;-71
2021/12/18 14:03:47;;;;;;;5.73;5.43;;;;;;;1.12;100.00;92691.97;4914378;28;20519;-72
2021/12/18 14:06:17;;;;;;;4.17;3.97;;;;;;;1.19;100.00;92693.56;4903515;28;20525;-72
2021/12/18 14:08:47;;;;;;;4.93;4.73;;;;;;;1.10;100.00;92688.66;4906431;28;20615;-72
2021/12/18 14:11:25;;;;;;;7.63;4.00;;;;;;;1.10;100.00;92689.47;4909267;28;20258;-72
2021/12/18 14:13:58;;;;;;;22.90;4.70;;;;;;;1.12;100.00;92687.81;4904563;28;20666;-72
2021/12/18 14:16:25;;;;;;;4.27;4.03;;;;;;;0.97;100.00;92682.09;4913781;28;20241;-72
2021/12/18 14:18:56;;;;;;;4.90;4.60;;;;;;;1.00;100.00;92682.09;4908304;28;20597;-72
2021/12/18 14:21:35;;;;;;;6.33;4.87;;;;;;;1.04;100.00;92684.53;4914839;28;20565;-72
2021/12/18 14:24:03;;;;;;;8.47;6.83;;;;;;;0.97;100.00;92685.41;4920333;28;20605;-72
2021/12/18 14:26:32;;;;;;;6.73;6.23;;;;;;;0.92;100.00;92667.22;4918052;28;20210;-72
2021/12/18 14:29:07;;;;;;;7.03;6.37;;;;;;;0.92;100.00;92668.88;4914188;28;20478;-72
2021/12/18 14:31:38;;;;;;;5.27;5.00;;;;;;;1.00;100.00;92682.94;4916198;28;20573;-72
2021/12/18 14:34:10;;;;;;;5.17;4.67;;;;;;;1.10;100.00;92683.69;4916103;28;20560;-72
2021/12/18 14:36:57;;;;;;;3.47;3.27;;;;;;;0.92;100.00;92679.66;4916260;28;20577;-72
2021/12/18 14:39:37;;;;;;;3.77;3.40;;;;;;;0.95;100.00;92688.75;4912762;28;20311;-72
2021/12/18 14:42:31;;;;;;;4.87;4.57;;;;;;;1.03;100.00;92697.81;4905041;28;20641;-72
2021/12/18 14:45:00;;;;;;;6.10;4.53;;;;;;;1.12;100.00;92700.25;4911990;28;20205;-72
2021/12/18 14:47:32;;;;;;;5.20;4.70;;;;;;;1.16;100.00;92696.91;4909159;28;20597;-72
2021/12/18 14:50:16;;;;;;;5.60;5.17;;;;;;;1.15;100.00;92695.25;4916108;28;20686;-72
2021/12/18 14:52:59;;;;;;;5.80;3.90;;;;;;;1.23;100.00;92706.00;4913852;28;20563;-73
2021/12/18 14:55:28;;;;;;;4.77;4.47;;;;;;;1.21;100.00;92712.63;4911156;28;20229;-73
2021/12/18 14:58:00;;;;;;;5.40;3.60;;;;;;;1.16;100.00;92708.53;4910358;28;20236;-73
2021/12/18 15:00:30;;;;;;;7.50;6.87;;;;;;;1.14;100.00;92722.63;4902880;28;20607;-73
2021/12/18 15:03:16;;;;;;;4.03;3.53;;;;;;;1.10;100.00;92729.28;4919953;28;20637;-72
2021/12/18 15:05:52;;;;;;;2.47;2.37;;;;;;;0.97;100.00;92716.91;4912339;28;20599;-73
2021/12/18 15:08:21;;;;;;;2.33;2.23;;;;;;;0.90;100.00;92730.25;4905859;28;20568;-73
2021/12/18 15:10:56;;;;;;;2.70;2.60;;;;;;;0.86;100.00;92726.91;4914892;28;20545;-72
2021/12/18 15:13:27;;;;;;;3.93;3.63;;;;;;;0.75;100.00;92726.97;4916849;28;20533;-73
2021/12/18 15:16:32;;;;;;;3.13;2.93;;;;;;;0.85;100.00;92742.66;4910654;28;20767;-72
2021/12/18 15:19:03;;;;;;;1.77;1.77;;;;;;;0.71;100.00;92727.00;4874421;28;20540;-72
2021/12/18 15:21:33;;;;;;;1.77;1.77;;;;;;;0.63;100.00;92729.50;4917445;28;20662;-72
2021/12/18 15:24:02;;;;;;;1.77;1.77;;;;;;;0.45;100.00;92718.81;4916680;28;20664;-75
2021/12/18 15:26:29;;;;;;;1.87;1.77;;;;;;;0.42;100.00;92742.00;4914421;28;20502;-76
2021/12/18 15:28:58;;;;;;;2.03;1.93;;;;;;;0.39;100.00;92740.34;4908972;28;20533;-75
2021/12/18 15:31:26;;;;;;;2.90;2.63;;;;;;;0.31;100.00;92738.72;4912447;28;20586;-75
2021/12/18 15:33:54;;;;;;;1.97;1.87;;;;;;;0.16;100.00;92753.69;4917789;28;20268;-75
2021/12/18 15:36:22;;;;;;;4.20;2.27;;;;;;;0.13;100.00;92759.47;4911671;28;20245;-76
2021/12/18 15:38:50;;;;;;;1.27;1.27;;;;;;;0.05;100.00;92756.19;4914708;28;20614;-76
2021/12/18 15:41:17;;;;;;;1.27;1.27;;;;;;;0.11;100.00;92766.13;4914655;28;20243;-75
2021/12/18 15:43:45;;;;;;;0.90;0.90;;;;;;;0.07;100.00;92754.50;4905907;28;20235;-74
2021/12/18 15:46:13;;;;;;;1.07;1.07;;;;;;;0.10;100.00;92756.19;4912042;28;20205;-74
2021/12/18 15:48:44;;;;;;;1.10;1.10;;;;;;;0.12;100.00;92765.25;4915110;28;20634;-75
2021/12/18 15:51:13;;;;;;;1.13;1.13;;;;;;;0.12;100.00;92770.22;4918880;28;20701;-75
2021/12/18 15:53:40;;;;;;;1.63;1.57;;;;;;;0.14;100.00;92780.16;4914824;28;20460;-75
2021/12/18 15:56:07;;;;;;;1.67;1.57;;;;;;;0.14;100.00;92780.16;4912283;28;21501;-76
2021/12/18 15:58:35;;;;;;;2.20;2.10;;;;;;;0.02;100.00;92772.72;4911131;28;20560;-77
2021/12/18 16:01:03;;;;;;;1.07;1.07;;;;;;;-0.06;100.00;92776.03;4916446;28;20209;-77
2021/12/18 16:03:32;;;;;;;1.77;1.77;;;;;;;0.02;100.00;92795.91;4913627;28;20229;-76
2021/12/18 16:05:59;;;;;;;1.10;1.10;;;;;;;-0.10;100.00;92776.03;4907287;28;20562;-76
2021/12/18 16:08:26;;;;;;;1.50;1.50;;;;;;;-0.15;100.00;92787.63;4906973;28;20684;-76
2021/12/18 16:10:54;;;;;;;1.20;1.20;;;;;;;-0.09;100.00;92803.38;4904041;28;20558;-75
2021/12/18 16:13:21;;;;;;;1.83;1.83;;;;;;;-0.11;100.00;92799.22;4916567;28;20586;-74
2021/12/18 16:15:48;;;;;;;4.07;3.87;;;;;;;-0.08;100.00;92807.50;4908935;28;20644;-74
2021/12/18 16:18:17;;;;;;;4.10;4.00;;;;;;;-0.13;100.00;92811.66;4913664;28;20226;-77
2021/12/18 16:20:46;;;;;;;3.00;2.87;;;;;;;-0.29;100.00;92795.09;4914372;28;20558;-77
2021/12/18 16:23:13;;;;;;;3.77;3.57;;;;;;;-0.24;100.00;92807.50;4917414;28;20603;-77
2021/12/18 16:25:41;;;;;;;7.93;4.73;;;;;;;-0.30;100.00;92803.38;4913196;28;20624;-77
2021/12/18 16:28:08;;;;;;;3.20;3.10;;;;;;;-0.31;100.00;92805.84;4910761;28;20682;-77
2021/12/18 16:30:36;;;;;;;4.73;4.53;;;;;;;-0.34;100.00;92821.56;4918378;28;20581;-76
2021/12/18 16:33:04;;;;;;;6.50;5.03;;;;;;;-0.39;100.00;92823.19;4914177;28;20632;-76
2021/12/18 16:35:32;;;;;;;3.40;3.30;;;;;;;-0.49;100.00;92816.56;4912393;28;20692;-77
2021/12/18 16:38:25;;;;;;;5.47;5.07;;;;;;;-0.47;100.00;92827.34;4913436;28;20607;-77
2021/12/18 16:40:54;;;;;;;4.53;4.23;;;;;;;-0.53;100.00;92822.34;4914283;28;20225;-77
2021/12/18 16:43:21;;;;;;;11.90;3.57;;;;;;;-0.66;100.00;92823.97;4904039;28;20656;-76
2021/12/18 16:45:49;;;;;;;5.37;4.13;;;;;;;-0.91;100.00;92804.91;4906795;28;20598;-77
2021/12/18 16:48:18;;;;;;;5.07;4.87;;;;;;;-0.90;100.00;92812.34;4913739;28;20575;-76
2021/12/18 16:50:47;;;;;;;6.13;4.43;;;;;;;-0.93;100.00;92817.31;4918056;28;20484;-76
2021/12/18 16:53:16;;;;;;;6.33;5.00;;;;;;;-0.96;100.00;92814.78;4912548;28;20328;-76
2021/12/18 16:55:44;;;;;;;6.40;5.23;;;;;;;-0.97;100.00;92810.69;4908882;28;20610;-76
2021/12/18 16:58:11;;;;;;;7.33;5.03;;;;;;;-0.86;100.00;92810.72;4914743;28;20229;-75
2021/12/18 17:00:38;;;;;;;4.93;4.60;;;;;;;-0.74;100.00;92807.44;4914685;28;20636;-76
2021/12/18 17:03:05;;;;;;;14.97;6.37;;;;;;;-0.85;100.00;92807.41;4916502;28;20602;-76
2021/12/18 17:05:34;;;;;;;7.80;5.67;;;;;;;-0.91;100.00;92810.72;4903446;28;20482;-75
2021/12/18 17:08:02;;;;;;;11.13;6.83;;;;;;;-0.92;100.00;92810.69;4906937;28;20681;-76
2021/12/18 17:10:31;;;;;;;5.60;5.20;;;;;;;-0.99;100.00;92809.84;4914557;28;20272;-75
2021/12/18 17:12:59;;;;;;;5.77;5.23;;;;;;;-0.94;100.00;92808.19;4917129;28;20464;-76
2021/12/18 17:15:26;;;;;;;3.40;3.30;;;;;;;-0.95;100.00;92821.41;4914041;28;20197;-76
2021/12/18 17:17:54;;;;;;;4.90;4.10;;;;;;;-0.92;100.00;92818.13;4909914;28;20630;-73
2021/12/18 17:20:21;;;;;;;6.33;4.07;;;;;;;-0.96;100.00;92819.75;4909562;28;20590;-73
2021/12/18 17:22:48;;;;;;;2.67;2.63;;;;;;;-1.04;100.00;92825.53;5142242;23;20718;-73
2021/12/18 17:25:16;;;;;;;3.67;3.27;;;;;;;-0.96;100.00;92824.72;4915911;28;20605;-71
2021/12/18 17:27:45;;;;;;;4.70;4.47;;;;;;;-0.91;100.00;92828.06;4917989;28;20628;-73
2021/12/18 17:30:15;;;;;;;6.03;4.13;;;;;;;-1.00;100.00;92825.53;4905973;28;20479;-73
2021/12/18 17:32:43;;;;;;;5.20;4.73;;;;;;;-0.88;100.00;92830.53;4898535;28;20612;-73
2021/12/18 17:35:11;;;;;;;6.30;5.57;;;;;;;-0.81;100.00;92833.03;4898926;28;20653;-73
2021/12/18 17:37:39;;;;;;;10.03;5.17;;;;;;;-0.82;100.00;92834.69;4898889;28;20720;-73